Time,TemperatureF,DewpointF,PressureIn,WindDirection,WindDirectionDegrees,WindSpeedMPH,WindSpeedGustMPH,Humidity,HourlyPrecipIn,Conditions,Clouds,dailyrainin,SoftwareType,DateUTC
2013-05-17 00:02:00,58.6,56.0,26.96,North,0,0.0,0.0,91,0.00,RA,,0.00,WeatherDisplay:10.37,2013-05-17 05:02:00,
2013-05-17 00:07:00,58.6,56.0,26.96,North,0,0.0,0.0,91,0.00,RA,,0.00,WeatherDisplay:10.37,2013-05-17 05:07:00,
2013-05-17 00:12:00,58.6,56.0,26.96,North,0,0.0,0.0,91,0.00,CLR,,0.00,WeatherDisplay:10.37,2013-05-17 05:12:00,
2013-05-17 00:17:00,58.6,56.0,26.96,North,0,0.0,0.0,91,0.00,CLR,,0.00,WeatherDisplay:10.37,2013-05-17 05:17:00,
2013-05-17 00:22:00,58.6,56.0,26.96,North,0,0.0,0.0,91,0.00,CLR,,0.00,WeatherDisplay:10.37,2013-05-17 05:22:00,
2013-05-17 00:28:00,58.6,56.0,26.97,North,0,0.0,0.0,91,0.00,CLR,,0.00,WeatherDisplay:10.37,2013-05-17 05:28:00,
2013-05-17 00:33:00,58.6,56.0,26.96,North,0,0.0,0.0,91,0.00,CLR,,0.00,WeatherDisplay:10.37,2013-05-17 05:33:00,
2013-05-17 00:38:00,58.6,56.0,26.97,North,0,0.0,0.0,91,0.00,CLR,,0.00,WeatherDisplay:10.37,2013-05-17 05:38:00,
2013-05-17 00:43:00,58.6,56.0,26.96,North,0,0.0,0.0,91,0.00,CLR,,0.00,WeatherDisplay:10.37,2013-05-17 05:43:00,
2013-05-17 00:48:00,58.6,56.0,26.97,North,0,0.0,0.0,91,0.00,CLR,,0.00,WeatherDisplay:10.37,2013-05-17 05:48:00,
2013-05-17 00:53:00,58.6,56.0,26.96,North,0,0.0,0.0,91,0.00,CLR,,0.00,WeatherDisplay:10.37,2013-05-17 05:53:00,
2013-05-17 00:59:00,58.6,56.0,26.96,North,0,0.0,0.0,91,0.00,CLR,,0.00,WeatherDisplay:10.37,2013-05-17 05:59:00,
2013-05-17 01:04:00,58.6,56.0,26.97,North,0,0.0,0.0,91,0.00,CLR,,0.00,WeatherDisplay:10.37,2013-05-17 06:04:00,
2013-05-17 01:09:00,58.6,56.0,26.97,North,0,0.0,0.0,91,0.00,CLR,,0.00,WeatherDisplay:10.37,2013-05-17 06:09:00,
2013-05-17 01:14:00,58.6,56.0,26.98,North,0,0.0,0.0,91,0.00,CLR,,0.00,WeatherDisplay:10.37,2013-05-17 06:14:00,
2013-05-17 01:19:00,58.6,56.0,26.99,North,0,0.0,0.0,91,0.00,CLR,,0.00,WeatherDisplay:10.37,2013-05-17 06:19:00,
2013-05-17 01:24:00,58.6,56.0,27.00,North,0,0.0,0.0,91,0.00,CLR,,0.00,WeatherDisplay:10.37,2013-05-17 06:24:00,
2013-05-17 01:29:00,58.6,56.0,27.00,North,0,0.0,0.0,91,0.00,CLR,,0.00,WeatherDisplay:10.37,2013-05-17 06:29:00,
2013-05-17 01:35:00,58.6,56.0,27.00,North,0,0.0,0.0,91,0.00,CLR,,0.00,WeatherDisplay:10.37,2013-05-17 06:35:00,
2013-05-17 01:40:00,58.6,56.0,27.00,North,0,0.0,0.0,91,0.00,CLR,,0.00,WeatherDisplay:10.37,2013-05-17 06:40:00,
2013-05-17 01:45:00,58.1,56.7,27.00,NE,45,1.1,0.0,95,0.01,RA,,0.01,WeatherDisplay:10.37,2013-05-17 06:45:00,
2013-05-17 01:50:00,58.1,56.7,27.00,SW,225,0.0,0.0,95,0.02,RA,,0.02,WeatherDisplay:10.37,2013-05-17 06:50:00,
2013-05-17 01:55:00,58.1,56.7,27.00,SW,225,0.0,0.0,95,0.02,RA,,0.02,WeatherDisplay:10.37,2013-05-17 06:55:00,
2013-05-17 02:00:00,57.9,56.5,27.00,SW,225,1.1,0.0,95,0.02,CLR,,0.02,WeatherDisplay:10.37,2013-05-17 07:00:00,
2013-05-17 02:05:00,57.9,56.8,26.99,SW,225,1.1,0.0,96,0.02,CLR,,0.02,WeatherDisplay:10.37,2013-05-17 07:05:00,
2013-05-17 02:11:00,58.1,57.0,26.99,SW,225,2.3,2.3,96,0.02,CLR,,0.02,WeatherDisplay:10.37,2013-05-17 07:11:00,
2013-05-17 02:16:00,58.3,57.4,26.99,SW,225,3.5,3.5,97,0.02,CLR,,0.02,WeatherDisplay:10.37,2013-05-17 07:16:00,
2013-05-17 02:21:00,59.0,57.9,26.98,NW,315,3.5,3.5,96,0.02,CLR,,0.02,WeatherDisplay:10.37,2013-05-17 07:21:00,
2013-05-17 02:26:00,59.0,57.9,26.99,NW,315,1.1,1.1,96,0.02,CLR,,0.02,WeatherDisplay:10.37,2013-05-17 07:26:00,
2013-05-17 02:31:00,59.2,58.0,26.99,SW,225,4.6,4.6,96,0.02,CLR,,0.02,WeatherDisplay:10.37,2013-05-17 07:31:00,
2013-05-17 02:37:00,59.5,58.1,26.99,West,270,3.5,3.5,95,0.02,CLR,,0.02,WeatherDisplay:10.37,2013-05-17 07:37:00,
2013-05-17 02:42:00,59.9,58.2,26.99,SW,225,4.6,4.6,94,0.02,CLR,,0.02,WeatherDisplay:10.37,2013-05-17 07:42:00,
2013-05-17 02:47:00,59.9,58.2,26.99,SW,225,4.6,4.6,94,0.00,CLR,,0.02,WeatherDisplay:10.37,2013-05-17 07:47:00,
2013-05-17 02:52:00,59.9,58.2,26.98,North,0,4.6,4.6,94,0.00,CLR,,0.02,WeatherDisplay:10.37,2013-05-17 07:52:00,
2013-05-17 02:58:00,59.9,58.2,26.97,North,0,4.6,4.6,94,0.00,CLR,,0.02,WeatherDisplay:10.37,2013-05-17 07:58:00,
2013-05-17 03:03:00,59.9,58.2,26.97,North,0,4.6,4.6,94,0.00,CLR,,0.02,WeatherDisplay:10.37,2013-05-17 08:03:00,
2013-05-17 03:08:00,59.9,58.2,26.95,North,0,4.6,4.6,94,0.00,CLR,,0.02,WeatherDisplay:10.37,2013-05-17 08:08:00,
2013-05-17 03:13:00,61.3,57.1,26.95,South,180,5.8,5.8,86,0.00,CLR,,0.02,WeatherDisplay:10.37,2013-05-17 08:13:00,
2013-05-17 03:18:00,61.3,57.1,26.95,South,180,5.8,5.8,86,0.00,CLR,,0.02,WeatherDisplay:10.37,2013-05-17 08:18:00,
2013-05-17 03:23:00,61.3,57.1,26.95,North,0,6.0,6.0,86,0.00,CLR,,0.02,WeatherDisplay:10.37,2013-05-17 08:23:00,
2013-05-17 03:28:00,61.3,57.1,26.95,North,0,5.8,5.8,86,0.00,CLR,,0.02,WeatherDisplay:10.37,2013-05-17 08:28:00,
2013-05-17 03:33:00,61.3,57.1,26.94,North,0,5.8,5.8,86,0.00,CLR,,0.02,WeatherDisplay:10.37,2013-05-17 08:33:00,
2013-05-17 03:39:00,61.3,57.1,26.95,North,0,5.8,5.8,86,0.00,CLR,,0.02,WeatherDisplay:10.37,2013-05-17 08:39:00,
2013-05-17 03:44:00,61.3,57.1,26.95,North,0,6.0,6.0,86,0.00,CLR,,0.02,WeatherDisplay:10.37,2013-05-17 08:44:00,
2013-05-17 03:49:00,61.3,57.1,26.95,North,0,6.0,6.0,86,0.00,CLR,,0.02,WeatherDisplay:10.37,2013-05-17 08:49:00,
2013-05-17 03:54:00,61.3,57.1,26.95,North,0,5.8,5.8,86,0.00,CLR,,0.02,WeatherDisplay:10.37,2013-05-17 08:54:00,
2013-05-17 03:59:00,61.3,57.1,26.95,North,0,5.8,5.8,86,0.00,CLR,,0.02,WeatherDisplay:10.37,2013-05-17 08:59:00,
2013-05-17 04:05:00,61.3,57.1,26.96,North,0,5.8,5.8,86,0.00,CLR,,0.02,WeatherDisplay:10.37,2013-05-17 09:05:00,
2013-05-17 04:10:00,61.3,57.1,26.96,North,0,5.8,5.8,86,0.00,CLR,,0.02,WeatherDisplay:10.37,2013-05-17 09:10:00,
2013-05-17 04:15:00,61.3,57.1,26.96,North,0,5.8,5.8,86,0.00,CLR,,0.02,WeatherDisplay:10.37,2013-05-17 09:15:00,
2013-05-17 04:20:00,61.3,57.1,26.96,North,0,5.8,5.8,86,0.00,CLR,,0.02,WeatherDisplay:10.37,2013-05-17 09:20:00,
2013-05-17 04:26:00,61.3,57.1,26.95,North,0,5.8,5.8,86,0.00,CLR,,0.02,WeatherDisplay:10.37,2013-05-17 09:26:00,
2013-05-17 04:31:00,61.3,57.1,26.95,North,0,6.0,6.0,86,0.00,CLR,,0.02,WeatherDisplay:10.37,2013-05-17 09:31:00,
2013-05-17 04:36:00,61.3,57.1,26.95,North,0,5.8,5.8,86,0.00,CLR,,0.02,WeatherDisplay:10.37,2013-05-17 09:36:00,
2013-05-17 04:41:00,61.3,57.1,26.95,North,0,5.8,5.8,86,0.00,CLR,,0.02,WeatherDisplay:10.37,2013-05-17 09:41:00,
2013-05-17 04:46:00,61.3,57.1,26.94,North,0,5.8,5.8,86,0.00,CLR,,0.02,WeatherDisplay:10.37,2013-05-17 09:46:00,
2013-05-17 04:51:00,61.3,57.1,26.94,North,0,5.8,5.8,86,0.00,CLR,,0.02,WeatherDisplay:10.37,2013-05-17 09:51:00,
2013-05-17 04:57:00,61.3,57.1,26.94,North,0,5.8,5.8,86,0.00,CLR,,0.02,WeatherDisplay:10.37,2013-05-17 09:57:00,
2013-05-17 05:02:00,61.3,57.1,26.94,North,0,5.8,5.8,86,0.00,CLR,,0.02,WeatherDisplay:10.37,2013-05-17 10:02:00,
2013-05-17 05:07:00,61.3,57.1,26.94,North,0,5.8,5.8,86,0.00,CLR,,0.02,WeatherDisplay:10.37,2013-05-17 10:07:00,
2013-05-17 05:12:00,61.3,57.1,26.94,North,0,5.8,5.8,86,0.00,CLR,,0.02,WeatherDisplay:10.37,2013-05-17 10:12:00,
2013-05-17 05:18:00,61.3,57.1,26.94,North,0,5.8,5.8,86,0.00,CLR,,0.02,WeatherDisplay:10.37,2013-05-17 10:18:00,
2013-05-17 05:23:00,61.3,57.1,26.94,North,0,6.0,6.0,86,0.00,CLR,,0.02,WeatherDisplay:10.37,2013-05-17 10:23:00,
2013-05-17 05:28:00,61.3,57.1,26.94,North,0,5.8,5.8,86,0.00,CLR,,0.02,WeatherDisplay:10.37,2013-05-17 10:28:00,
2013-05-17 05:33:00,61.3,57.1,26.94,North,0,5.8,5.8,86,0.00,CLR,,0.02,WeatherDisplay:10.37,2013-05-17 10:33:00,
2013-05-17 05:38:00,61.3,57.1,26.94,North,0,5.8,5.8,86,0.00,CLR,,0.02,WeatherDisplay:10.37,2013-05-17 10:38:00,
2013-05-17 05:44:00,61.3,57.1,26.94,North,0,5.8,5.8,86,0.00,CLR,,0.02,WeatherDisplay:10.37,2013-05-17 10:44:00,
2013-05-17 05:49:00,61.3,57.1,26.94,North,0,5.8,5.8,86,0.00,CLR,,0.02,WeatherDisplay:10.37,2013-05-17 10:49:00,
2013-05-17 05:54:00,61.3,57.1,26.94,North,0,5.8,5.8,86,0.00,CLR,,0.02,WeatherDisplay:10.37,2013-05-17 10:54:00,
2013-05-17 05:59:00,61.3,57.1,26.94,North,0,5.8,5.8,86,0.00,CLR,,0.02,WeatherDisplay:10.37,2013-05-17 10:59:00,
2013-05-17 06:04:00,61.3,57.1,26.94,North,0,5.8,5.8,86,0.00,CLR,,0.02,WeatherDisplay:10.37,2013-05-17 11:04:00,
2013-05-17 06:10:00,61.3,57.1,26.94,North,0,5.8,5.8,86,0.00,CLR,,0.02,WeatherDisplay:10.37,2013-05-17 11:10:00,
2013-05-17 06:15:00,61.3,57.1,26.94,North,0,5.8,5.8,86,0.00,CLR,,0.02,WeatherDisplay:10.37,2013-05-17 11:15:00,
2013-05-17 06:20:00,61.3,57.1,26.94,North,0,5.8,5.8,86,0.00,CLR,,0.02,WeatherDisplay:10.37,2013-05-17 11:20:00,
2013-05-17 06:25:00,61.3,57.1,26.94,North,0,6.0,6.0,86,0.00,CLR,,0.02,WeatherDisplay:10.37,2013-05-17 11:25:00,
2013-05-17 06:30:00,61.3,57.1,26.95,North,0,5.8,5.8,86,0.00,CLR,,0.02,WeatherDisplay:10.37,2013-05-17 11:30:00,
2013-05-17 06:36:00,61.3,57.1,26.95,North,0,5.8,5.8,86,0.00,CLR,,0.02,WeatherDisplay:10.37,2013-05-17 11:36:00,
2013-05-17 06:41:00,61.3,57.1,26.95,North,0,5.8,5.8,86,0.00,CLR,,0.02,WeatherDisplay:10.37,2013-05-17 11:41:00,
2013-05-17 06:46:00,61.3,57.1,26.95,North,0,6.0,6.0,86,0.00,CLR,,0.02,WeatherDisplay:10.37,2013-05-17 11:46:00,
2013-05-17 06:51:00,61.3,57.1,26.95,North,0,5.8,5.8,86,0.00,CLR,,0.02,WeatherDisplay:10.37,2013-05-17 11:51:00,
2013-05-17 06:56:00,61.3,57.1,26.95,North,0,5.8,5.8,86,0.00,CLR,,0.02,WeatherDisplay:10.37,2013-05-17 11:56:00,
2013-05-17 07:01:00,61.3,57.1,26.96,North,0,5.8,5.8,86,0.00,CLR,,0.02,WeatherDisplay:10.37,2013-05-17 12:01:00,
2013-05-17 07:07:00,61.3,57.1,26.96,North,0,5.8,5.8,86,0.00,CLR,,0.02,WeatherDisplay:10.37,2013-05-17 12:07:00,
2013-05-17 07:12:00,61.3,57.1,26.97,North,0,5.8,5.8,86,0.00,CLR,,0.02,WeatherDisplay:10.37,2013-05-17 12:12:00,
2013-05-17 07:17:00,61.3,57.1,26.96,North,0,5.8,5.8,86,0.00,CLR,,0.02,WeatherDisplay:10.37,2013-05-17 12:17:00,
2013-05-17 07:22:00,61.3,57.1,26.96,North,0,5.8,5.8,86,0.00,CLR,,0.02,WeatherDisplay:10.37,2013-05-17 12:22:00,
2013-05-17 07:27:00,61.3,57.1,26.97,North,0,6.0,6.0,86,0.00,CLR,,0.02,WeatherDisplay:10.37,2013-05-17 12:27:00,
2013-05-17 07:32:00,61.3,57.1,26.96,North,0,5.8,5.8,86,0.00,CLR,,0.02,WeatherDisplay:10.37,2013-05-17 12:32:00,
2013-05-17 07:37:00,61.3,57.1,26.96,North,0,5.8,5.8,86,0.00,CLR,,0.02,WeatherDisplay:10.37,2013-05-17 12:37:00,
2013-05-17 07:43:00,61.3,57.1,26.97,North,0,6.0,6.0,86,0.00,CLR,,0.02,WeatherDisplay:10.37,2013-05-17 12:43:00,
2013-05-17 07:48:00,61.3,57.1,26.97,North,0,5.8,5.8,86,0.00,CLR,,0.02,WeatherDisplay:10.37,2013-05-17 12:48:00,
2013-05-17 07:53:00,63.7,59.4,26.97,SE,135,2.3,2.3,86,0.00,CLR,,0.02,WeatherDisplay:10.37,2013-05-17 12:53:00,
2013-05-17 07:58:00,63.7,59.4,26.97,SE,135,2.3,2.3,86,0.00,CLR,,0.02,WeatherDisplay:10.37,2013-05-17 12:58:00,
2013-05-17 08:04:00,63.7,59.4,26.97,North,0,2.3,2.3,86,0.00,CLR,,0.02,WeatherDisplay:10.37,2013-05-17 13:04:00,
2013-05-17 08:09:00,63.7,59.4,26.98,North,0,2.3,2.3,86,0.00,CLR,,0.02,WeatherDisplay:10.37,2013-05-17 13:09:00,
2013-05-17 08:14:00,63.7,59.4,26.97,North,0,2.3,2.3,86,0.00,CLR,,0.02,WeatherDisplay:10.37,2013-05-17 13:14:00,
2013-05-17 08:20:00,63.7,59.4,26.98,North,0,2.3,2.3,86,0.00,CLR,,0.02,WeatherDisplay:10.37,2013-05-17 13:20:00,
2013-05-17 08:25:00,63.7,59.4,26.98,North,0,2.3,2.3,86,0.00,CLR,,0.02,WeatherDisplay:10.37,2013-05-17 13:25:00,
2013-05-17 08:30:00,63.7,59.4,26.98,North,0,2.3,2.3,86,0.00,CLR,,0.02,WeatherDisplay:10.37,2013-05-17 13:30:00,
2013-05-17 08:35:00,63.7,59.4,26.98,North,0,2.3,2.3,86,0.00,CLR,,0.02,WeatherDisplay:10.37,2013-05-17 13:35:00,
2013-05-17 08:41:00,63.7,59.4,26.98,North,0,2.3,2.3,86,0.00,CLR,,0.02,WeatherDisplay:10.37,2013-05-17 13:41:00,
2013-05-17 08:46:00,63.7,59.4,26.98,North,0,2.3,2.3,86,0.00,CLR,,0.02,WeatherDisplay:10.37,2013-05-17 13:46:00,
2013-05-17 08:51:00,63.7,59.4,26.98,North,0,2.3,2.3,86,0.00,CLR,,0.02,WeatherDisplay:10.37,2013-05-17 13:51:00,
2013-05-17 08:56:00,63.7,59.4,26.99,North,0,2.3,2.3,86,0.00,CLR,,0.02,WeatherDisplay:10.37,2013-05-17 13:56:00,
2013-05-17 09:01:00,63.7,59.4,26.99,North,0,2.3,2.3,86,0.00,CLR,,0.02,WeatherDisplay:10.37,2013-05-17 14:01:00,
2013-05-17 09:06:00,63.7,59.4,26.99,North,0,2.3,2.3,86,0.00,CLR,,0.02,WeatherDisplay:10.37,2013-05-17 14:06:00,
2013-05-17 09:11:00,63.7,59.4,26.99,North,0,2.3,2.3,86,0.00,CLR,,0.02,WeatherDisplay:10.37,2013-05-17 14:11:00,
2013-05-17 09:16:00,63.7,59.4,26.99,North,0,2.3,2.3,86,0.00,CLR,,0.02,WeatherDisplay:10.37,2013-05-17 14:16:00,
2013-05-17 09:21:00,63.7,59.4,27.00,North,0,2.3,2.3,86,0.00,CLR,,0.02,WeatherDisplay:10.37,2013-05-17 14:21:00,
2013-05-17 09:27:00,63.7,59.4,27.00,North,0,2.3,2.3,86,0.00,CLR,,0.02,WeatherDisplay:10.37,2013-05-17 14:27:00,
2013-05-17 09:32:00,63.7,59.4,26.99,North,0,2.3,2.3,86,0.00,CLR,,0.02,WeatherDisplay:10.37,2013-05-17 14:32:00,
2013-05-17 09:37:00,63.7,59.4,27.00,North,0,2.3,2.3,86,0.00,CLR,,0.02,WeatherDisplay:10.37,2013-05-17 14:37:00,
2013-05-17 09:42:00,78.1,64.9,26.99,South,180,8.1,8.1,64,0.00,CLR,,0.02,WeatherDisplay:10.37,2013-05-17 14:42:00,
2013-05-17 09:48:00,77.4,64.2,26.99,SE,135,8.1,8.1,64,0.00,CLR,,0.02,WeatherDisplay:10.37,2013-05-17 14:48:00,
2013-05-17 09:53:00,77.0,64.3,26.99,ESE,112,5.8,5.8,65,0.00,CLR,,0.02,WeatherDisplay:10.37,2013-05-17 14:53:00,
2013-05-17 09:58:00,77.0,64.3,26.99,SE,135,3.5,3.5,65,0.00,CLR,,0.02,WeatherDisplay:10.37,2013-05-17 14:58:00,
2013-05-17 10:03:00,77.2,64.5,26.99,SSE,158,8.1,8.1,65,0.00,CLR,,0.02,WeatherDisplay:10.37,2013-05-17 15:03:00,
2013-05-17 10:08:00,77.0,64.8,26.99,SE,135,4.6,4.6,66,0.00,CLR,,0.02,WeatherDisplay:10.37,2013-05-17 15:08:00,
2013-05-17 10:13:00,77.4,64.7,26.99,South,180,5.8,5.8,65,0.00,CLR,,0.02,WeatherDisplay:10.37,2013-05-17 15:13:00,
2013-05-17 10:19:00,77.2,64.9,26.99,South,180,5.8,5.8,66,0.00,CLR,,0.02,WeatherDisplay:10.37,2013-05-17 15:19:00,
2013-05-17 10:24:00,77.7,65.9,26.99,WSW,248,8.3,8.3,67,0.00,CLR,,0.02,WeatherDisplay:10.37,2013-05-17 15:24:00,
2013-05-17 10:29:00,78.1,65.4,26.99,SE,135,5.8,5.8,65,0.00,CLR,,0.02,WeatherDisplay:10.37,2013-05-17 15:29:00,
2013-05-17 10:34:00,78.1,65.4,26.99,South,180,8.1,8.1,65,0.00,CLR,,0.02,WeatherDisplay:10.37,2013-05-17 15:34:00,
2013-05-17 10:39:00,78.3,65.1,26.99,East,90,6.0,6.0,64,0.00,CLR,,0.02,WeatherDisplay:10.37,2013-05-17 15:39:00,
2013-05-17 10:45:00,78.6,65.9,26.98,South,180,5.8,5.8,65,0.00,CLR,,0.02,WeatherDisplay:10.37,2013-05-17 15:45:00,
2013-05-17 10:50:00,79.2,65.9,26.99,South,180,5.8,5.8,64,0.00,CLR,,0.02,WeatherDisplay:10.37,2013-05-17 15:50:00,
2013-05-17 10:55:00,79.5,65.4,26.98,South,180,5.8,5.8,62,0.00,CLR,,0.02,WeatherDisplay:10.37,2013-05-17 15:55:00,
2013-05-17 11:00:00,79.7,66.0,26.99,South,180,5.8,5.8,63,0.00,CLR,,0.02,WeatherDisplay:10.37,2013-05-17 16:00:00,
2013-05-17 11:05:00,79.7,66.0,26.99,South,180,5.8,5.8,63,0.00,CLR,,0.02,WeatherDisplay:10.37,2013-05-17 16:05:00,
2013-05-17 11:11:00,80.8,65.6,26.98,SE,135,8.1,8.1,60,0.00,CLR,,0.02,WeatherDisplay:10.37,2013-05-17 16:11:00,
2013-05-17 11:16:00,81.1,65.9,26.99,SSE,158,5.8,5.8,60,0.00,CLR,,0.02,WeatherDisplay:10.37,2013-05-17 16:16:00,
2013-05-17 11:21:00,81.5,64.8,26.99,SW,225,4.6,4.6,57,0.00,CLR,,0.02,WeatherDisplay:10.37,2013-05-17 16:21:00,
2013-05-17 11:26:00,81.9,65.1,26.99,SE,135,6.9,6.9,57,0.00,CLR,,0.02,WeatherDisplay:10.37,2013-05-17 16:26:00,
2013-05-17 11:31:00,81.9,65.1,26.98,SE,135,5.8,5.8,57,0.00,CLR,,0.02,WeatherDisplay:10.37,2013-05-17 16:31:00,
2013-05-17 11:37:00,81.9,65.1,26.98,North,6,5.8,5.8,57,0.00,CLR,,0.02,WeatherDisplay:10.37,2013-05-17 16:37:00,
2013-05-17 11:42:00,82.8,65.5,26.98,East,90,5.8,5.8,56,0.00,CLR,,0.02,WeatherDisplay:10.37,2013-05-17 16:42:00,
2013-05-17 11:47:00,82.8,65.5,26.98,East,90,5.8,5.8,56,0.00,CLR,,0.02,WeatherDisplay:10.37,2013-05-17 16:47:00,
2013-05-17 11:52:00,82.8,65.5,26.98,North,0,5.8,5.8,56,0.00,CLR,,0.02,WeatherDisplay:10.37,2013-05-17 16:52:00,
2013-05-17 11:57:00,83.7,65.8,26.98,South,180,8.1,8.1,55,0.00,CLR,,0.02,WeatherDisplay:10.37,2013-05-17 16:57:00,
2013-05-17 12:02:00,84.6,64.4,26.98,South,180,8.1,8.1,51,0.00,CLR,,0.02,WeatherDisplay:10.37,2013-05-17 17:02:00,
2013-05-17 12:07:00,84.7,64.6,26.98,SW,225,5.8,5.8,51,0.00,CLR,,0.02,WeatherDisplay:10.37,2013-05-17 17:07:00,
2013-05-17 12:12:00,84.7,64.6,26.97,SW,225,5.8,5.8,51,0.00,CLR,,0.02,WeatherDisplay:10.37,2013-05-17 17:12:00,
2013-05-17 12:18:00,84.7,64.6,26.97,North,0,5.8,5.8,51,0.00,CLR,,0.02,WeatherDisplay:10.37,2013-05-17 17:18:00,
2013-05-17 12:23:00,85.1,63.8,26.97,South,180,6.9,6.9,49,0.00,CLR,,0.02,WeatherDisplay:10.37,2013-05-17 17:23:00,
2013-05-17 12:28:00,85.1,63.8,26.97,South,180,6.9,6.9,49,0.00,CLR,,0.02,WeatherDisplay:10.37,2013-05-17 17:28:00,
2013-05-17 12:33:00,86.0,64.0,26.97,South,180,8.1,8.1,48,0.00,CLR,,0.02,WeatherDisplay:10.37,2013-05-17 17:33:00,
2013-05-17 12:39:00,86.0,64.0,26.97,South,180,8.1,8.1,48,0.00,CLR,,0.02,WeatherDisplay:10.37,2013-05-17 17:39:00,
2013-05-17 12:44:00,86.0,64.0,26.96,North,8,8.1,8.1,48,0.00,CLR,,0.02,WeatherDisplay:10.37,2013-05-17 17:44:00,
2013-05-17 12:49:00,86.0,64.0,26.96,North,0,8.1,8.1,48,0.00,CLR,,0.02,WeatherDisplay:10.37,2013-05-17 17:49:00,
2013-05-17 12:54:00,86.9,63.6,26.96,South,180,8.1,8.1,46,0.00,CLR,,0.02,WeatherDisplay:10.37,2013-05-17 17:54:00,
2013-05-17 12:59:00,86.9,63.6,26.96,South,180,10.4,10.4,46,0.00,CLR,,0.02,WeatherDisplay:10.37,2013-05-17 17:59:00,
2013-05-17 13:05:00,86.9,63.6,26.96,South,180,10.4,10.4,46,0.00,CLR,,0.02,WeatherDisplay:10.37,2013-05-17 18:05:00,
2013-05-17 13:10:00,87.1,62.5,26.95,South,180,8.1,8.1,44,0.00,CLR,,0.02,WeatherDisplay:10.37,2013-05-17 18:10:00,
2013-05-17 13:15:00,87.3,62.7,26.95,SSE,158,8.1,8.1,44,0.00,CLR,,0.02,WeatherDisplay:10.37,2013-05-17 18:15:00,
2013-05-17 13:20:00,87.3,62.7,26.95,SSE,158,8.1,8.1,44,0.00,CLR,,0.02,WeatherDisplay:10.37,2013-05-17 18:20:00,
2013-05-17 13:25:00,87.3,62.7,26.95,North,0,8.1,8.1,44,0.00,CLR,,0.02,WeatherDisplay:10.37,2013-05-17 18:25:00,
2013-05-17 13:31:00,87.3,62.7,26.95,North,0,8.1,8.1,44,0.00,CLR,,0.02,WeatherDisplay:10.37,2013-05-17 18:31:00,
2013-05-17 13:36:00,87.3,62.7,26.95,North,0,8.1,8.1,44,0.00,CLR,,0.02,WeatherDisplay:10.37,2013-05-17 18:36:00,
2013-05-17 13:44:00,87.3,62.7,26.95,North,0,8.1,8.1,44,0.00,CLR,,0.02,WeatherDisplay:10.37,2013-05-17 18:44:00,
2013-05-17 13:49:00,87.3,62.7,26.94,North,0,8.1,8.1,44,0.00,CLR,,0.02,WeatherDisplay:10.37,2013-05-17 18:49:00,
2013-05-17 13:54:00,87.3,62.7,26.95,North,0,8.1,8.1,44,0.00,CLR,,0.02,WeatherDisplay:10.37,2013-05-17 18:54:00,
2013-05-17 14:00:00,87.3,62.7,26.95,North,0,8.1,8.1,44,0.00,CLR,,0.02,WeatherDisplay:10.37,2013-05-17 19:00:00,
2013-05-17 14:05:00,88.0,60.6,26.95,SSE,158,10.4,10.4,40,0.00,CLR,,0.02,WeatherDisplay:10.37,2013-05-17 19:05:00,
2013-05-17 14:10:00,88.0,62.0,26.94,South,180,11.5,11.5,42,0.00,CLR,,0.02,WeatherDisplay:10.37,2013-05-17 19:10:00,
2013-05-17 14:15:00,88.0,62.0,26.94,South,180,11.5,11.5,42,0.00,CLR,,0.02,WeatherDisplay:10.37,2013-05-17 19:15:00,
2013-05-17 14:21:00,87.4,59.4,26.94,SE,135,11.5,11.5,39,0.00,CLR,,0.02,WeatherDisplay:10.37,2013-05-17 19:21:00,
2013-05-17 14:26:00,87.4,59.4,26.93,SE,135,8.1,8.1,39,0.00,CLR,,0.02,WeatherDisplay:10.37,2013-05-17 19:26:00,
2013-05-17 14:31:00,87.4,59.4,26.93,North,6,8.1,8.1,39,0.00,CLR,,0.02,WeatherDisplay:10.37,2013-05-17 19:31:00,
2013-05-17 14:36:00,87.8,60.5,26.93,SSW,202,8.1,8.1,40,0.00,CLR,,0.02,WeatherDisplay:10.37,2013-05-17 19:36:00,
2013-05-17 14:42:00,87.6,59.6,26.93,South,180,10.4,10.4,39,0.00,CLR,,0.02,WeatherDisplay:10.37,2013-05-17 19:42:00,
2013-05-17 14:47:00,87.6,59.6,26.93,South,180,10.4,10.4,39,0.00,CLR,,0.02,WeatherDisplay:10.37,2013-05-17 19:47:00,
2013-05-17 14:52:00,87.6,59.6,26.93,North,8,10.4,10.4,39,0.00,CLR,,0.02,WeatherDisplay:10.37,2013-05-17 19:52:00,
2013-05-17 14:57:00,87.6,59.6,26.93,North,0,10.4,10.4,39,0.00,CLR,,0.02,WeatherDisplay:10.37,2013-05-17 19:57:00,
2013-05-17 15:03:00,87.6,59.6,26.93,North,0,10.4,10.4,39,0.00,CLR,,0.02,WeatherDisplay:10.37,2013-05-17 20:03:00,
2013-05-17 15:08:00,87.6,59.6,26.93,North,0,10.4,10.4,39,0.00,CLR,,0.02,WeatherDisplay:10.37,2013-05-17 20:08:00,
2013-05-17 15:13:00,87.6,59.6,26.92,North,0,10.4,10.4,39,0.00,CLR,,0.02,WeatherDisplay:10.37,2013-05-17 20:13:00,
2013-05-17 15:18:00,87.6,59.6,26.93,North,0,10.4,10.4,39,0.00,CLR,,0.02,WeatherDisplay:10.37,2013-05-17 20:18:00,
2013-05-17 15:24:00,87.6,59.6,26.92,North,0,10.4,10.4,39,0.00,CLR,,0.02,WeatherDisplay:10.37,2013-05-17 20:24:00,
2013-05-17 15:29:00,87.6,59.6,26.92,North,0,10.4,10.4,39,0.00,CLR,,0.02,WeatherDisplay:10.37,2013-05-17 20:29:00,
2013-05-17 15:34:00,87.6,59.6,26.92,North,0,10.4,10.4,39,0.00,CLR,,0.02,WeatherDisplay:10.37,2013-05-17 20:34:00,
2013-05-17 15:39:00,87.6,59.6,26.92,North,0,10.4,10.4,39,0.00,CLR,,0.02,WeatherDisplay:10.37,2013-05-17 20:39:00,
2013-05-17 15:44:00,87.6,59.6,26.92,North,0,10.4,10.4,39,0.00,CLR,,0.02,WeatherDisplay:10.37,2013-05-17 20:44:00,
2013-05-17 15:49:00,87.6,59.6,26.92,North,0,10.4,10.4,39,0.00,CLR,,0.02,WeatherDisplay:10.37,2013-05-17 20:49:00,
2013-05-17 15:55:00,87.6,59.6,26.92,North,0,10.4,10.4,39,0.00,CLR,,0.02,WeatherDisplay:10.37,2013-05-17 20:55:00,
2013-05-17 16:00:00,87.6,59.6,26.92,North,0,10.4,10.4,39,0.00,CLR,,0.02,WeatherDisplay:10.37,2013-05-17 21:00:00,
2013-05-17 16:05:00,86.4,58.5,26.92,SE,135,10.4,10.4,39,0.00,CLR,,0.02,WeatherDisplay:10.37,2013-05-17 21:05:00,
2013-05-17 16:11:00,86.4,57.0,26.91,SE,135,10.4,10.4,37,0.00,CLR,,0.02,WeatherDisplay:10.37,2013-05-17 21:11:00,
2013-05-17 16:16:00,86.4,57.0,26.91,North,6,10.7,10.7,37,0.00,CLR,,0.02,WeatherDisplay:10.37,2013-05-17 21:16:00,
2013-05-17 16:21:00,86.4,57.0,26.91,North,0,10.4,10.4,37,0.00,CLR,,0.02,WeatherDisplay:10.37,2013-05-17 21:21:00,
2013-05-17 16:26:00,86.4,57.0,26.91,North,0,10.4,10.4,37,0.00,CLR,,0.02,WeatherDisplay:10.37,2013-05-17 21:26:00,
2013-05-17 16:32:00,86.4,57.0,26.91,North,0,10.4,10.4,37,0.00,CLR,,0.02,WeatherDisplay:10.37,2013-05-17 21:32:00,
2013-05-17 16:37:00,86.0,58.2,26.91,South,180,23.0,23.0,39,0.00,CLR,,0.02,WeatherDisplay:10.37,2013-05-17 21:37:00,
2013-05-17 16:42:00,85.6,57.8,26.91,SE,135,11.5,11.5,39,0.00,CLR,,0.02,WeatherDisplay:10.37,2013-05-17 21:42:00,
2013-05-17 16:47:00,85.5,58.4,26.91,SE,135,10.4,10.4,40,0.00,CLR,,0.02,WeatherDisplay:10.37,2013-05-17 21:47:00,
2013-05-17 16:52:00,85.8,58.0,26.91,SE,135,15.0,15.0,39,0.00,CLR,,0.02,WeatherDisplay:10.37,2013-05-17 21:52:00,
2013-05-17 16:57:00,85.8,58.0,26.91,SE,135,15.0,15.0,39,0.00,CLR,,0.02,WeatherDisplay:10.37,2013-05-17 21:57:00,
2013-05-17 17:02:00,85.8,58.0,26.91,North,6,15.0,15.0,39,0.00,CLR,,0.02,WeatherDisplay:10.37,2013-05-17 22:02:00,
2013-05-17 17:08:00,85.8,58.0,26.91,North,0,15.0,15.0,39,0.00,CLR,,0.02,WeatherDisplay:10.37,2013-05-17 22:08:00,
2013-05-17 17:13:00,85.3,56.8,26.91,South,180,12.7,12.7,38,0.00,CLR,,0.02,WeatherDisplay:10.37,2013-05-17 22:13:00,
2013-05-17 17:18:00,85.1,56.6,26.90,SE,135,11.5,11.5,38,0.00,CLR,,0.02,WeatherDisplay:10.37,2013-05-17 22:18:00,
2013-05-17 17:23:00,84.9,56.5,26.90,SE,135,12.7,12.7,38,0.00,CLR,,0.02,WeatherDisplay:10.37,2013-05-17 22:23:00,
2013-05-17 17:28:00,84.9,57.9,26.90,SW,225,12.7,12.7,40,0.00,CLR,,0.02,WeatherDisplay:10.37,2013-05-17 22:28:00,
2013-05-17 17:33:00,84.9,57.2,26.90,SE,135,13.8,13.8,39,0.00,CLR,,0.02,WeatherDisplay:10.37,2013-05-17 22:33:00,
2013-05-17 17:39:00,84.9,57.2,26.90,East,90,9.2,9.2,39,0.00,CLR,,0.02,WeatherDisplay:10.37,2013-05-17 22:39:00,
2013-05-17 17:44:00,84.7,57.0,26.90,SE,135,10.4,10.4,39,0.00,CLR,,0.02,WeatherDisplay:10.37,2013-05-17 22:44:00,
2013-05-17 17:49:00,84.6,57.6,26.90,SE,135,10.4,10.4,40,0.00,CLR,,0.02,WeatherDisplay:10.37,2013-05-17 22:49:00,
2013-05-17 17:54:00,84.6,56.9,26.90,SE,135,15.0,15.0,39,0.00,CLR,,0.02,WeatherDisplay:10.37,2013-05-17 22:54:00,
2013-05-17 17:59:00,84.4,56.7,26.90,SE,135,10.4,13.0,39,0.00,CLR,,0.02,WeatherDisplay:10.37,2013-05-17 22:59:00,
2013-05-17 18:04:00,84.2,55.8,26.90,SE,135,15.0,15.0,38,0.00,CLR,,0.02,WeatherDisplay:10.37,2013-05-17 23:04:00,
2013-05-17 18:10:00,84.6,57.6,26.89,South,180,18.4,18.4,40,0.00,CLR,,0.02,WeatherDisplay:10.37,2013-05-17 23:10:00,
2013-05-17 18:15:00,84.6,57.6,26.89,South,180,10.7,10.7,40,0.00,CLR,,0.02,WeatherDisplay:10.37,2013-05-17 23:15:00,
2013-05-17 18:20:00,84.9,56.5,26.89,South,180,11.5,11.5,38,0.00,CLR,,0.02,WeatherDisplay:10.37,2013-05-17 23:20:00,
2013-05-17 18:25:00,84.6,56.9,26.89,SW,225,11.5,11.5,39,0.00,CLR,,0.02,WeatherDisplay:10.37,2013-05-17 23:25:00,
2013-05-17 18:30:00,84.2,56.6,26.89,SE,135,10.4,10.4,39,0.00,CLR,,0.02,WeatherDisplay:10.37,2013-05-17 23:30:00,
2013-05-17 18:35:00,84.0,57.1,26.89,SE,135,13.8,13.8,40,0.00,CLR,,0.02,WeatherDisplay:10.37,2013-05-17 23:35:00,
2013-05-17 18:41:00,84.4,56.7,26.89,SW,225,17.3,17.3,39,0.00,CLR,,0.02,WeatherDisplay:10.37,2013-05-17 23:41:00,
2013-05-17 18:46:00,83.8,58.3,26.88,South,180,13.8,13.8,42,0.00,CLR,,0.02,WeatherDisplay:10.37,2013-05-17 23:46:00,
2013-05-17 18:51:00,84.2,57.9,26.88,SE,135,11.5,11.5,41,0.00,CLR,,0.02,WeatherDisplay:10.37,2013-05-17 23:51:00,
2013-05-17 18:56:00,84.4,58.1,26.88,SE,135,10.4,10.4,41,0.00,CLR,,0.02,WeatherDisplay:10.37,2013-05-17 23:56:00,
2013-05-17 19:01:00,84.9,57.9,26.88,South,180,12.7,12.7,40,0.00,CLR,,0.02,WeatherDisplay:10.37,2013-05-18 00:01:00,
2013-05-17 19:07:00,84.9,57.9,26.88,South,180,8.1,8.1,40,0.00,CLR,,0.02,WeatherDisplay:10.37,2013-05-18 00:07:00,
2013-05-17 19:12:00,84.2,57.3,26.88,South,180,12.7,12.7,40,0.00,CLR,,0.02,WeatherDisplay:10.37,2013-05-18 00:12:00,
2013-05-17 19:17:00,83.3,56.5,26.88,SE,135,11.5,11.5,40,0.00,CLR,,0.02,WeatherDisplay:10.37,2013-05-18 00:17:00,
2013-05-17 19:22:00,83.1,57.0,26.88,South,180,11.5,11.5,41,0.00,CLR,,0.02,WeatherDisplay:10.37,2013-05-18 00:22:00,
2013-05-17 19:28:00,82.6,55.8,26.88,South,180,16.1,16.1,40,0.00,CLR,,0.02,WeatherDisplay:10.37,2013-05-18 00:28:00,
2013-05-17 19:33:00,82.0,56.0,26.88,ESE,112,15.0,15.0,41,0.00,CLR,,0.02,WeatherDisplay:10.37,2013-05-18 00:33:00,
2013-05-17 19:38:00,82.0,56.0,26.88,South,180,13.8,13.8,41,0.00,CLR,,0.02,WeatherDisplay:10.37,2013-05-18 00:38:00,
2013-05-17 19:43:00,82.2,56.8,26.88,East,90,8.1,8.1,42,0.00,CLR,,0.02,WeatherDisplay:10.37,2013-05-18 00:43:00,
2013-05-17 19:49:00,81.9,56.5,26.88,South,180,15.0,15.0,42,0.00,CLR,,0.02,WeatherDisplay:10.37,2013-05-18 00:49:00,
2013-05-17 19:54:00,81.7,55.7,26.88,South,180,13.8,13.8,41,0.00,CLR,,0.02,WeatherDisplay:10.37,2013-05-18 00:54:00,
2013-05-17 19:59:00,81.1,55.9,26.88,ESE,112,9.2,9.2,42,0.00,CLR,,0.02,WeatherDisplay:10.37,2013-05-18 00:59:00,
2013-05-17 20:04:00,81.0,55.7,26.88,South,180,8.1,8.1,42,0.00,CLR,,0.02,WeatherDisplay:10.37,2013-05-18 01:04:00,
2013-05-17 20:09:00,80.6,56.0,26.88,SE,135,9.2,9.2,43,0.00,CLR,,0.02,WeatherDisplay:10.37,2013-05-18 01:09:00,
2013-05-17 20:15:00,80.2,56.3,26.88,SSE,158,10.4,10.4,44,0.00,CLR,,0.02,WeatherDisplay:10.37,2013-05-18 01:15:00,
2013-05-17 20:20:00,79.9,56.6,26.88,South,180,12.7,12.7,45,0.00,CLR,,0.02,WeatherDisplay:10.37,2013-05-18 01:20:00,
2013-05-17 20:25:00,79.7,56.5,26.89,South,180,9.2,9.2,45,0.00,CLR,,0.02,WeatherDisplay:10.37,2013-05-18 01:25:00,
2013-05-17 20:30:00,79.3,56.8,26.89,South,180,8.1,8.1,46,0.00,CLR,,0.02,WeatherDisplay:10.37,2013-05-18 01:30:00,
2013-05-17 20:36:00,79.0,56.4,26.89,South,180,6.9,6.9,46,0.00,CLR,,0.02,WeatherDisplay:10.37,2013-05-18 01:36:00,
2013-05-17 20:41:00,78.6,57.3,26.89,SW,225,6.9,6.9,48,0.00,CLR,,0.02,WeatherDisplay:10.37,2013-05-18 01:41:00,
2013-05-17 20:46:00,78.3,57.0,26.90,East,90,8.1,8.1,48,0.00,CLR,,0.02,WeatherDisplay:10.37,2013-05-18 01:46:00,
2013-05-17 20:51:00,78.1,57.4,26.89,SE,135,5.8,5.8,49,0.00,CLR,,0.02,WeatherDisplay:10.37,2013-05-18 01:51:00,
2013-05-17 20:56:00,77.5,57.4,26.90,SE,135,3.5,3.5,50,0.00,CLR,,0.02,WeatherDisplay:10.37,2013-05-18 01:56:00,
2013-05-17 21:02:00,77.2,57.1,26.90,SW,225,5.8,5.8,50,0.00,CLR,,0.02,WeatherDisplay:10.37,2013-05-18 02:02:00,
2013-05-17 21:07:00,77.2,57.1,26.90,SW,225,5.8,5.8,50,0.00,CLR,,0.02,WeatherDisplay:10.37,2013-05-18 02:07:00,
2013-05-17 21:12:00,76.6,58.2,26.90,SE,135,4.6,4.6,53,0.00,CLR,,0.02,WeatherDisplay:10.37,2013-05-18 02:12:00,
2013-05-17 21:17:00,76.3,58.4,26.90,South,180,8.1,8.1,54,0.00,CLR,,0.02,WeatherDisplay:10.37,2013-05-18 02:17:00,
2013-05-17 21:22:00,76.1,58.2,26.90,East,90,7.6,7.6,54,0.00,CLR,,0.02,WeatherDisplay:10.37,2013-05-18 02:22:00,
2013-05-17 21:27:00,75.9,58.1,26.90,SSE,158,8.1,8.1,54,0.00,CLR,,0.02,WeatherDisplay:10.37,2013-05-18 02:27:00,
2013-05-17 21:33:00,75.7,57.9,26.90,SE,135,5.8,5.8,54,0.00,CLR,,0.02,WeatherDisplay:10.37,2013-05-18 02:33:00,
2013-05-17 21:38:00,75.4,57.6,26.90,South,180,8.1,8.1,54,0.00,CLR,,0.02,WeatherDisplay:10.37,2013-05-18 02:38:00,
2013-05-17 21:43:00,75.2,57.4,26.91,SE,135,9.2,9.2,54,0.00,CLR,,0.02,WeatherDisplay:10.37,2013-05-18 02:43:00,
2013-05-17 21:48:00,75.2,57.9,26.91,SW,225,6.9,6.9,55,0.00,CLR,,0.02,WeatherDisplay:10.37,2013-05-18 02:48:00,
2013-05-17 21:53:00,74.8,58.6,26.91,South,180,6.9,6.9,57,0.00,CLR,,0.02,WeatherDisplay:10.37,2013-05-18 02:53:00,
2013-05-17 21:59:00,74.5,58.2,26.92,South,180,8.1,8.1,57,0.00,CLR,,0.02,WeatherDisplay:10.37,2013-05-18 02:59:00,
2013-05-17 22:04:00,74.3,58.6,26.92,South,180,5.8,5.8,58,0.00,CLR,,0.02,WeatherDisplay:10.37,2013-05-18 03:04:00,
2013-05-17 22:09:00,73.9,58.7,26.92,SE,135,5.8,5.8,59,0.00,CLR,,0.02,WeatherDisplay:10.37,2013-05-18 03:09:00,
2013-05-17 22:15:00,73.8,59.0,26.92,South,180,6.9,6.9,60,0.00,CLR,,0.02,WeatherDisplay:10.37,2013-05-18 03:15:00,
2013-05-17 22:20:00,73.4,60.5,26.92,SE,135,9.2,9.2,64,0.00,CLR,,0.02,WeatherDisplay:10.37,2013-05-18 03:20:00,
2013-05-17 22:25:00,73.2,60.7,26.92,SSE,158,5.8,5.8,65,0.00,CLR,,0.02,WeatherDisplay:10.37,2013-05-18 03:25:00,
2013-05-17 22:30:00,73.0,61.4,26.92,East,90,8.1,8.1,67,0.00,CLR,,0.02,WeatherDisplay:10.37,2013-05-18 03:30:00,
2013-05-17 22:35:00,72.7,62.3,26.92,South,180,5.8,5.8,70,0.00,CLR,,0.02,WeatherDisplay:10.37,2013-05-18 03:35:00,
2013-05-17 22:41:00,72.5,62.6,26.93,SE,135,4.6,4.6,71,0.00,CLR,,0.02,WeatherDisplay:10.37,2013-05-18 03:41:00,
2013-05-17 22:46:00,72.1,62.6,26.92,South,180,5.8,5.8,72,0.00,CLR,,0.02,WeatherDisplay:10.37,2013-05-18 03:46:00,
2013-05-17 22:51:00,71.8,62.3,26.92,East,90,3.5,3.5,72,0.00,CLR,,0.02,WeatherDisplay:10.37,2013-05-18 03:51:00,
2013-05-17 22:56:00,71.4,62.3,26.93,SE,135,5.8,5.8,73,0.00,CLR,,0.02,WeatherDisplay:10.37,2013-05-18 03:56:00,
2013-05-17 23:01:00,71.2,62.1,26.93,South,180,3.5,3.5,73,0.00,CLR,,0.02,WeatherDisplay:10.37,2013-05-18 04:01:00,
2013-05-17 23:06:00,71.2,62.1,26.93,South,180,1.1,1.1,73,0.00,CLR,,0.02,WeatherDisplay:10.37,2013-05-18 04:06:00,
2013-05-17 23:12:00,70.5,62.2,26.94,South,180,4.6,4.6,75,0.00,CLR,,0.02,WeatherDisplay:10.37,2013-05-18 04:12:00,
2013-05-17 23:17:00,70.3,62.8,26.94,SSE,158,5.8,5.8,77,0.00,CLR,,0.02,WeatherDisplay:10.37,2013-05-18 04:17:00,
2013-05-17 23:22:00,70.2,63.3,26.94,SE,135,6.9,6.9,79,0.00,CLR,,0.02,WeatherDisplay:10.37,2013-05-18 04:22:00,
2013-05-17 23:27:00,70.2,63.7,26.94,South,180,6.0,6.0,80,0.00,CLR,,0.02,WeatherDisplay:10.37,2013-05-18 04:27:00,
2013-05-17 23:32:00,70.2,64.1,26.94,SE,135,10.4,10.4,81,0.00,CLR,,0.02,WeatherDisplay:10.37,2013-05-18 04:32:00,
2013-05-17 23:38:00,70.2,64.4,26.95,SSE,158,5.8,5.8,82,0.00,CLR,,0.02,WeatherDisplay:10.37,2013-05-18 04:38:00,
2013-05-17 23:43:00,70.2,64.4,26.95,SE,135,8.1,8.1,82,0.00,CLR,,0.02,WeatherDisplay:10.37,2013-05-18 04:43:00,
2013-05-17 23:48:00,70.0,64.2,26.95,South,180,8.1,8.1,82,0.00,CLR,,0.02,WeatherDisplay:10.37,2013-05-18 04:48:00,
2013-05-17 23:54:00,69.8,64.4,26.95,South,180,9.2,9.2,83,0.00,CLR,,0.02,WeatherDisplay:10.37,2013-05-18 04:54:00,
2013-05-17 23:59:00,69.8,64.4,26.94,SE,135,12.7,12.7,83,0.00,CLR,,0.02,WeatherDisplay:10.37,2013-05-18 04:59:00,